Flight Track Log - Related Links

Times and Time Zones

All times are in EDT time to prevent confusion due to time zone crossing. See the SWA303 flight status page for this flight to view local times or setup timezone preferences in your user account.


Time Position Orientation Groundspeed Altitude Reporting Facility
EDT Latitude Longitude Course Direction KTS MPH feet Rate Location/Type
Sun 02:40:20 PM 39.9167 -104.6667 62° Northeast 190 219 6,800  Level Denver TRACON
Sun 02:41:20 PM 39.9500 -104.5833 62° Northeast 241 277 8,700 1,600 Climbing Denver TRACON
Sun 02:42:20 PM 39.9500 -104.4833 90° East 295 339 10,000 1,400 Climbing Denver TRACON
Sun 02:43:20 PM 39.9500 -104.3667 90° East 354 407 11,500 1,842 Climbing Denver TRACON
Sun 02:44:14 PM 39.9336 -104.2475 100° East 374 430 13,500 2,586 Climbing Denver Center
Sun 02:45:16 PM 39.9192 -104.0908 97° East 405 466 16,500 2,710 Climbing Denver Center
Sun 02:46:18 PM 39.9042 -103.9406 97° East 421 484 19,100 2,516 Climbing Denver Center
Sun 02:47:20 PM 39.8875 -103.7742 97° East 433 498 21,700 2,323 Climbing Denver Center
Sun 02:48:22 PM 39.8969 -103.6175 85° East 444 511 23,900 2,032 Climbing Denver Center
Sun 02:49:24 PM 39.9167 -103.4522 81° East 456 525 25,900 1,839 Climbing Denver Center
Sun 02:50:26 PM 39.9353 -103.2811 82° East 470 541 27,700 1,645 Climbing Denver Center
Sun 02:51:28 PM 39.9536 -103.1056 82° East 484 557 29,300 1,742 Climbing Denver Center
Sun 02:52:30 PM 39.9722 -102.9308 82° East 482 555 31,300 1,984 Climbing Denver Center
Sun 02:53:32 PM 39.9917 -102.7272 83° East 482 555 33,400 1,839 Climbing Denver Center
Sun 02:54:34 PM 40.0083 -102.5700 82° East 475 547 35,100 1,645 Climbing Denver Center
Sun 02:55:36 PM 40.0250 -102.3856 83° East 459 528 36,800 919 Climbing Denver Center
Sun 02:56:38 PM 40.0397 -102.2264 83° East 462 532 37,000 97 Climbing Denver Center
Sun 02:57:40 PM 40.0561 -102.0397 83° East 465 535 37,000  Level Denver Center
Sun 02:58:41 PM 40.0708 -101.8800 83° East 463 533 37,000  Level Denver Center
Sun 02:59:43 PM 40.0872 -101.6922 83° East 467 537 37,000  Level Denver Center
Sun 03:00:45 PM 40.1006 -101.5308 84° East 468 539 37,000  Level Denver Center
Sun 03:01:47 PM 40.1175 -101.3433 83° East 467 537 37,000  Level Denver Center
Sun 03:02:49 PM 40.1297 -101.1850 84° East 463 533 37,000  Level Denver Center
Sun 03:03:51 PM 40.1458 -101.0014 83° East 458 527 37,000 387 Level Denver Center
Sun 03:04:53 PM 40.1578 -100.8411 84° East 463 533 37,800 750 Climbing Denver Center
Sun 03:06:07 PM 40.1708 -100.6814 84° East 464 534 38,700 526 Climbing Denver Center
Sun 03:07:10 PM 40.1872 -100.4711 84° East 460 529 39,000 144 Climbing Denver Center
Sun 03:08:12 PM 40.2017 -100.2858 84° East 461 531 39,000  Level Denver Center
Sun 03:09:14 PM 40.2128 -100.1250 85° East 465 535 39,000  Level Denver Center
Sun 03:10:16 PM 40.2261 -99.9392 85° East 463 533 39,000  Level Denver Center
Sun 03:11:18 PM 40.2389 -99.7644 84° East 462 532 39,000  Level Denver Center
Sun 03:12:20 PM 40.2508 -99.5989 85° East 460 529 39,000  Level Denver Center
Sun 03:13:22 PM 40.2614 -99.4322 85° East 460 529 39,000  Level Denver Center
Sun 03:14:24 PM 40.2736 -99.2675 84° East 457 526 39,000  Level Denver Center
Sun 03:15:26 PM 40.2839 -99.1017 85° East 459 528 39,000  Level Denver Center
Sun 03:16:28 PM 40.2964 -98.9028 85° East 459 528 39,000  Level Denver Center
Sun 03:17:24 PM 40.3058 -98.7689 85° East 463 533 39,000  Level Minneapolis Center
Sun 03:18:25 PM 40.3158 -98.6006 85° East 465 535 39,000  Level Minneapolis Center
Sun 03:19:27 PM 40.3267 -98.3961 86° East 470 541 39,000  Level Minneapolis Center
Sun 03:20:29 PM 40.3369 -98.2253 85° East 472 543 39,000  Level Minneapolis Center
Sun 03:21:31 PM 40.3469 -98.0533 86° East 474 545 39,000  Level Minneapolis Center
Sun 03:22:32 PM 40.3550 -97.8833 86° East 472 543 39,000  Level Minneapolis Center
Sun 03:23:34 PM 40.3650 -97.7133 86° East 470 541 39,000  Level Minneapolis Center
Sun 03:24:36 PM 40.3742 -97.5456 86° East 465 535 39,000  Level Minneapolis Center
Sun 03:25:38 PM 40.3822 -97.3764 86° East 465 535 39,000  Level Minneapolis Center
Sun 03:26:40 PM 40.3917 -97.1914 86° East 465 535 39,000  Level Minneapolis Center
Sun 03:27:41 PM 40.3992 -97.0258 87° East 459 528 39,000  Level Minneapolis Center
Sun 03:28:43 PM 40.4069 -96.8597 86° East 458 527 39,000  Level Minneapolis Center
Sun 03:29:45 PM 40.4142 -96.6936 87° East 457 526 39,000  Level Minneapolis Center
Sun 03:30:47 PM 40.4217 -96.4964 87° East 454 522 39,000  Level Minneapolis Center
Sun 03:31:49 PM 40.4297 -96.3300 86° East 457 526 39,000  Level Minneapolis Center
Sun 03:32:50 PM 40.4353 -96.1636 87° East 459 528 39,000  Level Minneapolis Center
Sun 03:33:52 PM 40.4425 -95.9958 87° East 461 531 39,000  Level Minneapolis Center
Sun 03:34:54 PM 40.4494 -95.8267 87° East 465 535 39,000  Level Minneapolis Center
Sun 03:35:56 PM 40.4553 -95.6617 87° East 460 529 39,000  Level Minneapolis Center
Sun 03:36:58 PM 40.4614 -95.4642 88° East 455 524 39,000  Level Minneapolis Center
Sun 03:38:00 PM 40.4669 -95.2994 87° East 454 522 39,000  Level Minneapolis Center
Sun 03:39:01 PM 40.4725 -95.1339 87° East 455 524 39,000  Level Minneapolis Center
Sun 03:40:03 PM 40.4767 -94.9683 88° East 455 524 39,000  Level Minneapolis Center
Sun 03:41:05 PM 40.4825 -94.8058 87° East 450 518 39,000  Level Minneapolis Center
Sun 03:42:07 PM 40.4861 -94.6425 88° East 449 517 39,000  Level Minneapolis Center
Sun 03:43:09 PM 40.4908 -94.4675 88° East 449 517 39,000  Level Minneapolis Center
Sun 03:44:10 PM 40.4950 -94.3050 88° East 448 516 39,000  Level Minneapolis Center
Sun 03:45:12 PM 40.4978 -94.1425 89° East 449 517 39,000  Level Minneapolis Center
Sun 03:46:14 PM 40.5011 -93.9467 89° East 449 517 39,000  Level Minneapolis Center
Sun 03:47:16 PM 40.5039 -93.7836 89° East 451 519 39,000  Level Minneapolis Center
Sun 03:48:58 PM 40.5086 -93.5194 89° East 455 524 39,000  Level Chicago Center
Sun 03:49:19 PM 40.5089 -93.4572 90° East 450 518 39,000  Level Minneapolis Center
Sun 03:50:21 PM 40.5128 -93.2917 88° East 452 520 39,000  Level Minneapolis Center
Sun 03:50:36 PM 40.5122 -93.2256 91° East 451 519 39,000  Level Kansas City Center
Sun 03:51:38 PM 40.5136 -93.0617 89° East 451 519 39,000  Level Kansas City Center
Sun 03:52:40 PM 40.5158 -92.8922 89° East 453 521 39,000  Level Kansas City Center
Sun 03:53:42 PM 40.5181 -92.7350 89° East 451 519 39,000  Level Kansas City Center
Sun 03:54:44 PM 40.5206 -92.5750 89° East 451 519 39,000  Level Kansas City Center
Sun 03:55:46 PM 40.5214 -92.3797 90° East 447 514 39,000  Level Kansas City Center
Sun 03:56:48 PM 40.5222 -92.2389 90° East 446 513 39,000  Level Kansas City Center
Sun 03:57:50 PM 40.5233 -92.0444 90° East 444 511 39,000  Level Kansas City Center
Sun 03:58:52 PM 40.5239 -91.8839 90° East 442 509 39,000  Level Kansas City Center
Sun 03:59:54 PM 40.5225 -91.7231 91° East 443 510 39,000  Level Kansas City Center
Sun 04:00:56 PM 40.5231 -91.5614 90° East 445 512 39,000  Level Kansas City Center
Sun 04:01:22 PM 40.5236 -91.4964 89° East 446 513 39,000  Level Chicago Center
Sun 04:02:25 PM 40.5239 -91.3022 90° East 446 513 39,000  Level Chicago Center
Sun 04:03:27 PM 40.5236 -91.1436 90° East 452 520 39,000  Level Chicago Center
Sun 04:04:29 PM 40.5225 -90.9775 90° East 456 525 39,000  Level Chicago Center
Sun 04:05:31 PM 40.5214 -90.8083 90° East 462 532 39,000  Level Chicago Center
Sun 04:06:33 PM 40.5200 -90.6403 91° East 462 532 39,000  Level Chicago Center
Sun 04:07:35 PM 40.5175 -90.4386 91° East 462 532 39,000  Level Chicago Center
Sun 04:08:37 PM 40.5156 -90.2700 91° East 462 532 39,000  Level Chicago Center
Sun 04:09:39 PM 40.5128 -90.0919 91° East 462 532 39,000  Level Chicago Center
Sun 04:10:41 PM 40.5106 -89.9222 91° East 466 536 39,000  Level Chicago Center
Sun 04:11:43 PM 40.5072 -89.7525 91° East 468 539 39,000  Level Chicago Center
Sun 04:12:45 PM 40.5044 -89.5836 91° East 466 536 39,000  Level Chicago Center
Sun 04:13:47 PM 40.5006 -89.3992 92° East 460 529 39,000  Level Chicago Center
Sun 04:14:49 PM 40.4983 -89.2322 91° East 460 529 39,000  Level Chicago Center
Sun 04:15:52 PM 40.4953 -89.0661 91° East 458 527 39,000  Level Chicago Center
Sun 04:16:54 PM 40.4908 -88.8656 92° East 458 527 39,000  Level Chicago Center
Sun 04:17:56 PM 40.4869 -88.7197 92° East 461 531 39,000  Level Chicago Center
Sun 04:18:58 PM 40.4811 -88.5197 92° East 460 529 39,000  Level Chicago Center
Sun 04:20:00 PM 40.4775 -88.3531 92° East 462 532 39,000  Level Chicago Center
Sun 04:21:02 PM 40.4733 -88.1853 92° East 464 534 39,000  Level Chicago Center
Sun 04:22:04 PM 40.4686 -88.0164 92° East 467 537 39,000  Level Chicago Center
Sun 04:23:06 PM 40.4633 -87.8472 92° East 469 540 39,000  Level Chicago Center
Sun 04:24:08 PM 40.4572 -87.6444 92° East 468 539 39,000  Level Chicago Center
Sun 04:25:10 PM 40.4494 -87.4742 93° East 470 541 39,000  Level Chicago Center
Sun 04:26:12 PM 40.4436 -87.3058 93° East 472 543 39,000  Level Chicago Center
Sun 04:27:14 PM 40.4372 -87.1331 93° East 471 542 39,000  Level Chicago Center
Sun 04:28:17 PM 40.4289 -86.9331 93° East 469 540 39,000  Level Chicago Center
Sun 04:29:19 PM 40.4217 -86.7614 93° East 468 539 39,000  Level Chicago Center
Sun 04:30:21 PM 40.4147 -86.5881 93° East 470 541 39,000  Level Chicago Center
Sun 04:31:23 PM 40.4072 -86.4156 93° East 470 541 39,000  Level Chicago Center
Sun 04:32:25 PM 40.3989 -86.2419 94° East 472 543 39,000  Level Chicago Center
Sun 04:33:27 PM 40.3914 -86.0664 93° East 476 548 39,000  Level Chicago Center
Sun 04:34:29 PM 40.3814 -85.8900 94° East 480 552 39,000  Level Chicago Center
Sun 04:35:31 PM 40.3725 -85.7125 94° East 484 557 39,000  Level Chicago Center
Sun 04:36:33 PM 40.3617 -85.5081 94° East 479 551 39,000  Level Chicago Center
Sun 04:37:35 PM 40.3525 -85.3311 94° East 484 557 39,000  Level Chicago Center
Sun 04:38:03 PM 40.3478 -85.2728 96° East 479 551 39,000  Level Indianapolis Center
Sun 04:39:05 PM 40.3378 -85.0678 94° East 479 551 39,000  Level Indianapolis Center
Sun 04:40:07 PM 40.3278 -84.8964 94° East 477 549 39,000  Level Indianapolis Center
Sun 04:41:09 PM 40.3167 -84.7197 95° East 480 552 39,000  Level Indianapolis Center
Sun 04:42:11 PM 40.3064 -84.5456 94° East 475 547 39,000  Level Indianapolis Center
Sun 04:43:13 PM 40.2964 -84.3711 94° East 476 548 39,000  Level Indianapolis Center
Sun 04:44:15 PM 40.2858 -84.1981 95° East 473 544 39,000  Level Indianapolis Center
Sun 04:45:17 PM 40.2728 -84.0239 96° East 476 548 39,000  Level Indianapolis Center
Sun 04:46:19 PM 40.2592 -83.8192 95° East 478 550 39,000  Level Indianapolis Center
Sun 04:47:21 PM 40.2472 -83.6439 95° East 476 548 39,000  Level Indianapolis Center
Sun 04:48:23 PM 40.2347 -83.4675 95° East 478 550 39,000  Level Indianapolis Center
Sun 04:49:25 PM 40.2222 -83.2906 95° East 480 552 39,000  Level Indianapolis Center
Sun 04:50:27 PM 40.2086 -83.1128 96° East 482 555 39,000  Level Indianapolis Center
Sun 04:51:29 PM 40.1961 -82.9356 95° East 484 557 39,000  Level Indianapolis Center
Sun 04:52:31 PM 40.1822 -82.7589 96° East 483 556 39,000  Level Indianapolis Center
Sun 04:53:33 PM 40.1686 -82.5794 96° East 488 562 39,000  Level Indianapolis Center
Sun 04:54:35 PM 40.1542 -82.4003 96° East 491 565 39,000  Level Indianapolis Center
Sun 04:55:37 PM 40.1397 -82.2211 96° East 494 568 39,000  Level Indianapolis Center
Sun 04:56:39 PM 40.1222 -82.0100 96° East 496 571 39,000  Level Indianapolis Center
Sun 04:57:41 PM 40.1067 -81.8269 96° East 501 577 39,000  Level Indianapolis Center
Sun 04:58:42 PM 40.0914 -81.6517 96° East 500 575 39,000  Level Indianapolis Center
Sun 04:59:44 PM 40.0617 -81.4778 103° East 488 562 39,000  Level Indianapolis Center
Sun 05:00:46 PM 40.0114 -81.3142 112° Southeast 484 557 39,000  Level Indianapolis Center
Sun 05:01:58 PM 39.9514 -81.1058 111° Southeast 476 548 39,000  Level Cleveland Center
Sun 05:02:57 PM 39.9019 -80.9431 112° Southeast 476 548 39,000  Level Cleveland Center
Sun 05:03:57 PM 39.8522 -80.7858 112° Southeast 476 548 39,000  Level Cleveland Center
Sun 05:04:58 PM 39.8025 -80.6264 112° Southeast 471 542 39,000  Level Cleveland Center
Sun 05:05:58 PM 39.7503 -80.4642 113° Southeast 476 548 39,000 -100 Level Cleveland Center
Sun 05:06:58 PM 39.7019 -80.3053 112° Southeast 476 548 38,800 -1,150 Descending Cleveland Center
Sun 05:07:58 PM 39.6514 -80.1464 112° Southeast 476 548 36,700 -2,500 Descending Cleveland Center
Sun 05:08:58 PM 39.5986 -79.9850 113° Southeast 476 548 33,800 -2,800 Descending Cleveland Center
Sun 05:09:13 PM 39.5792 -79.9347 117° Southeast 470 541 33,200 -2,640 Descending Washington Center
Sun 05:10:13 PM 39.5428 -79.7817 107° East 460 529 30,500 -2,529 Descending Washington Center
Sun 05:11:14 PM 39.5153 -79.6133 102° East 472 543 28,100 -1,736 Descending Washington Center
Sun 05:12:14 PM 39.4872 -79.4503 103° East 472 543 27,000 -1,169 Descending Washington Center
Sun 05:13:12 PM 39.4606 -79.3064 103° East 472 543 25,800 -1,729 Descending Washington Center
Sun 05:14:12 PM 39.4300 -79.1436 104° East 467 537 23,600 -2,182 Descending Washington Center
Sun 05:15:13 PM 39.4011 -78.9944 104° East 444 511 21,400 -2,066 Descending Washington Center
Sun 05:16:14 PM 39.3758 -78.8483 103° East 433 498 19,400 -1,966 Descending Washington Center
Sun 05:17:12 PM 39.3506 -78.7078 103° East 414 476 17,500 -2,118 Descending Washington Center
Sun 05:18:13 PM 39.3228 -78.5589 104° East 394 453 15,200 -2,115 Descending Washington Center
Sun 05:19:14 PM 39.2989 -78.4292 103° East 388 447 13,200 -1,966 Descending Washington Center
Sun 05:20:12 PM 39.2600 -78.3125 113° Southeast 367 422 11,300 -1,322 Descending Washington Center
Sun 05:21:12 PM 39.2183 -78.2117 118° Southeast 338 389 10,600 -843 Descending Washington Center
Sun 05:22:13 PM 39.2208 -78.0992 88° East 297 342 9,600 -738 Descending Washington Center
Sun 05:23:14 PM 39.2292 -77.9978 84° East 291 335 9,100 -750 Descending Washington Center
Sun 05:24:13 PM 39.2764 -77.9217 51° Northeast 262 302 8,100 -1,008 Descending Washington Center
Sun 05:25:13 PM 39.3053 -77.8367 66° East 257 296 7,100 -1,190 Descending Washington Center
Sun 05:26:14 PM 39.3233 -77.7514 75° East 251 289 5,700 -1,377 Descending Washington Center
Sun 05:27:15 PM 39.3100 -77.6864 105° East 211 243 4,300 -915 Descending Washington Center
Sun 05:28:12 PM 39.2692 -77.6372 137° Southeast 185 213 3,900 -186 Descending Washington Center
Sun 05:28:52 PM 39.2500 -77.6000 124° Southeast 203 234 4,000 -189 Climbing Potomac TRACON
Sun 05:29:47 PM 39.2167 -77.5500 131° Southeast 201 231 3,600 -496 Descending Potomac TRACON
Sun 05:30:53 PM 39.1833 -77.4833 123° Southeast 199 229 3,000 -300 Descending Potomac TRACON
Sun 05:31:47 PM 39.1500 -77.4500 142° Southeast 174 200 3,000 -211 Level Potomac TRACON
Sun 05:32:47 PM 39.1000 -77.4500 180° South 170 196 2,600 -595 Descending Potomac TRACON
Sun 05:33:48 PM 39.0500 -77.4500 180° South 161 185 1,800 -744 Descending Potomac TRACON
Sun 05:34:48 PM 39.0167 -77.4667 201° Southwest 127 146 1,100 -700 Descending Potomac TRACON

Login

Don't have an account? Register now (free) for customized features, flight alerts, and more!